Time;durP1;ratioP1;P1;durP2;ratioP2;P2;SDS_P1;SDS_P2;PMS_P1;PMS_P2;Temp;Humidity;BMP_temperature;BMP_pressure;BME280_temperature;BME280_humidity;BME280_pressure;Samples;Min_cycle;Max_cycle;Signal;HPM_P1;HPM_P2
2022/03/29 08:47:35;;;;;;;19.30;3.25;;;20.50;99.10;;;;;;5129427;27;20573;-70
2022/03/29 08:50:06;;;;;;;21.13;3.55;;;20.50;99.10;;;;;;5094389;28;20497;-68
2022/03/29 08:52:33;;;;;;;25.33;2.97;;;20.50;99.10;;;;;;5113340;27;20428;-71
2022/03/29 08:55:03;;;;;;;24.80;3.75;;;20.50;99.00;;;;;;5113277;28;20485;-72
2022/03/29 08:57:31;;;;;;;16.60;3.10;;;20.50;99.00;;;;;;5078809;28;20035;-71
2022/03/29 08:59:59;;;;;;;26.92;3.58;;;20.50;99.00;;;;;;5091306;27;20043;-73
2022/03/29 09:02:26;;;;;;;29.92;3.97;;;20.50;99.00;;;;;;5098388;27;20031;-72
2022/03/29 09:05:13;;;;;;;26.65;4.00;;;20.50;99.00;;;;;;5115481;27;20031;-72
2022/03/29 09:07:47;;;;;;;24.25;3.55;;;20.50;99.00;;;;;;5115930;27;20110;-72
2022/03/29 09:10:14;;;;;;;15.30;3.08;;;20.40;98.90;;;;;;5117751;27;20138;-75
2022/03/29 09:12:42;;;;;;;22.77;3.70;;;20.50;99.00;;;;;;5115120;27;20031;-75
2022/03/29 09:15:09;;;;;;;24.23;3.42;;;20.50;99.00;;;;;;5098294;27;20031;-73
2022/03/29 09:17:41;;;;;;;22.67;3.80;;;20.50;99.00;;;;;;5081471;27;20039;-72
2022/03/29 09:20:09;;;;;;;23.50;3.63;;;20.50;98.90;;;;;;5098455;27;20501;-72
2022/03/29 09:22:47;;;;;;;23.88;3.20;;;20.50;99.00;;;;;;5133467;27;20046;-73
2022/03/29 09:25:26;;;;;;;24.45;3.15;;;20.50;99.00;;;;;;5123907;27;20311;-71
2022/03/29 09:27:56;;;;;;;25.70;3.47;;;20.50;98.90;;;;;;5094838;28;20088;-71
2022/03/29 09:30:24;;;;;;;28.58;3.90;;;20.50;99.00;;;;;;5112630;28;20036;-71
2022/03/29 09:32:57;;;;;;;19.00;3.17;;;20.50;99.00;;;;;;5101867;27;20035;-72
2022/03/29 09:35:25;;;;;;;17.83;2.92;;;20.40;98.90;;;;;;5112661;27;20031;-72
2022/03/29 09:37:52;;;;;;;22.17;2.90;;;20.50;98.90;;;;;;5112115;28;20339;-72
2022/03/29 09:40:20;;;;;;;21.02;3.28;;;20.50;98.90;;;;;;5111397;28;20028;-71
2022/03/29 09:43:08;;;;;;;21.48;2.90;;;20.50;98.90;;;;;;5098001;27;20134;-72
2022/03/29 09:45:52;;;;;;;15.30;2.80;;;20.50;98.80;;;;;;5114470;27;20035;-73
2022/03/29 09:48:42;;;;;;;16.02;2.97;;;20.50;98.80;;;;;;5097172;27;20062;-71
2022/03/29 09:51:15;;;;;;;14.60;2.80;;;20.50;98.80;;;;;;5113315;27;20039;-71
2022/03/29 09:53:51;;;;;;;19.48;2.90;;;20.50;98.80;;;;;;5110470;28;20046;-70
2022/03/29 09:56:30;;;;;;;17.90;3.03;;;20.50;98.90;;;;;;5061408;28;20040;-70
2022/03/29 09:59:09;;;;;;;16.95;2.78;;;20.50;98.80;;;;;;5077819;28;20116;-71
2022/03/29 10:01:56;;;;;;;19.50;2.75;;;20.50;98.80;;;;;;5077885;27;20031;-71
2022/03/29 10:04:29;;;;;;;21.20;3.22;;;20.50;98.80;;;;;;5112816;28;20107;-71
2022/03/29 10:06:57;;;;;;;11.75;2.35;;;20.50;98.80;;;;;;5078395;28;20489;-71
2022/03/29 10:09:30;;;;;;;18.40;2.88;;;20.60;98.80;;;;;;5112001;28;20039;-71
2022/03/29 10:11:59;;;;;;;17.40;3.60;;;20.60;98.80;;;;;;5104681;27;20039;-72
2022/03/29 10:14:30;;;;;;;19.80;2.95;;;20.50;98.80;;;;;;5132044;27;20469;-72
2022/03/29 10:16:58;;;;;;;22.05;2.47;;;20.50;98.80;;;;;;5080402;27;20063;-73
2022/03/29 10:19:25;;;;;;;12.15;2.40;;;20.50;98.80;;;;;;5111068;27;20047;-71
2022/03/29 10:21:58;;;;;;;11.50;2.30;;;20.60;98.80;;;;;;5102402;27;20489;-71
2022/03/29 10:24:25;;;;;;;17.40;2.70;;;20.50;98.80;;;;;;5098681;27;20573;-71
2022/03/29 10:26:53;;;;;;;20.25;3.20;;;20.50;98.80;;;;;;5113843;27;20058;-72
2022/03/29 10:29:20;;;;;;;12.30;2.33;;;20.50;98.80;;;;;;5112186;27;20027;-71
2022/03/29 10:32:05;;;;;;;16.42;2.75;;;20.60;98.80;;;;;;5111895;27;20035;-72
2022/03/29 10:34:42;;;;;;;18.42;3.35;;;20.60;98.80;;;;;;5094995;28;20063;-71
2022/03/29 10:37:14;;;;;;;15.85;2.33;;;20.60;98.80;;;;;;5078795;28;20036;-71
2022/03/29 10:40:00;;;;;;;12.48;2.65;;;20.60;98.80;;;;;;5089527;27;20092;-72
2022/03/29 10:42:41;;;;;;;12.25;2.63;;;20.60;98.80;;;;;;5093230;28;20067;-72
2022/03/29 10:45:24;;;;;;;11.50;2.00;;;20.60;98.90;;;;;;5093352;28;20024;-72
2022/03/29 10:48:00;;;;;;;18.30;3.15;;;20.60;98.80;;;;;;5072712;28;20434;-69
2022/03/29 10:50:57;;;;;;;20.10;2.33;;;20.70;98.90;;;;;;5090525;28;20130;-74
2022/03/29 10:53:33;;;;;;;9.77;2.13;;;20.60;98.80;;;;;;5111098;28;20353;-71
2022/03/29 10:56:22;;;;;;;20.85;2.58;;;20.70;98.90;;;;;;5110140;28;20390;-71
2022/03/29 10:59:02;;;;;;;10.02;2.10;;;20.60;98.90;;;;;;5111502;28;20039;-71
2022/03/29 11:01:30;;;;;;;10.25;1.98;;;20.70;98.90;;;;;;5091612;28;20394;-71
2022/03/29 11:04:05;;;;;;;23.17;3.90;;;20.70;98.90;;;;;;5039535;28;20092;-72
2022/03/29 11:06:32;;;;;;;38.38;4.72;;;20.60;98.80;;;;;;5089497;28;20032;-71
2022/03/29 11:09:09;;;;;;;28.88;3.90;;;20.50;98.90;;;;;;5090700;28;20052;-76
2022/03/29 11:11:47;;;;;;;31.23;3.92;;;20.40;98.90;;;;;;5091545;28;20048;-79
2022/03/29 11:14:37;;;;;;;33.00;3.75;;;20.30;99.00;;;;;;5109385;28;20073;-77
2022/03/29 11:17:29;;;;;;;25.15;3.20;;;20.40;99.00;;;;;;5110535;28;20024;-77
2022/03/29 11:19:59;;;;;;;10.30;2.70;;;20.30;99.10;;;;;;5105459;28;20457;-77
2022/03/29 11:22:34;;;;;;;22.02;3.17;;;20.40;99.10;;;;;;5073039;28;20109;-79
2022/03/29 11:25:17;;;;;;;40.17;4.18;;;20.40;99.20;;;;;;5090175;28;20036;-76
2022/03/29 11:27:44;;;;;;;37.35;3.58;;;20.40;99.20;;;;;;5073743;28;20087;-77
2022/03/29 11:30:12;;;;;;;20.42;2.95;;;20.30;99.20;;;;;;5095587;28;20378;-79
2022/03/29 11:32:46;;;;;;;29.80;3.50;;;20.30;99.20;;;;;;5110431;28;20036;-79
2022/03/29 11:35:15;;;;;;;19.70;2.63;;;20.20;99.20;;;;;;5109832;28;20030;-80
2022/03/29 11:37:44;;;;;;;18.23;2.40;;;20.20;99.20;;;;;;5092917;28;20055;-78
2022/03/29 11:40:16;;;;;;;13.57;2.00;;;20.30;99.30;;;;;;5103967;28;20085;-77
2022/03/29 11:42:44;;;;;;;17.65;2.33;;;20.20;99.20;;;;;;5090357;28;20024;-77
2022/03/29 11:45:12;;;;;;;10.80;1.80;;;20.20;99.30;;;;;;5088913;28;20035;-76
2022/03/29 11:47:40;;;;;;;13.93;2.10;;;20.20;99.20;;;;;;5072362;28;20123;-76
2022/03/29 11:50:07;;;;;;;16.25;2.45;;;20.10;99.20;;;;;;5075160;28;20053;-75
2022/03/29 11:52:35;;;;;;;16.17;2.17;;;20.00;99.20;;;;;;5075757;28;20024;-75
2022/03/29 11:55:14;;;;;;;16.98;2.38;;;20.00;99.20;;;;;;5110929;28;20044;-75
2022/03/29 11:57:41;;;;;;;9.02;1.70;;;20.00;99.20;;;;;;5094242;28;20190;-74
2022/03/29 12:00:24;;;;;;;10.38;1.70;;;20.00;99.20;;;;;;5092062;28;20385;-74
2022/03/29 12:02:52;;;;;;;17.10;2.08;;;20.00;99.20;;;;;;5077294;28;20031;-75
2022/03/29 12:05:29;;;;;;;10.65;1.77;;;20.00;99.20;;;;;;5113927;28;20036;-74
2022/03/29 12:07:57;;;;;;;16.75;2.13;;;20.00;99.20;;;;;;5113779;28;20080;-75
2022/03/29 12:10:29;;;;;;;15.93;2.00;;;20.00;99.30;;;;;;5095709;28;20515;-75
2022/03/29 12:12:56;;;;;;;11.98;1.90;;;20.00;99.30;;;;;;5079552;28;20028;-74
2022/03/29 12:15:23;;;;;;;14.73;1.88;;;20.00;99.30;;;;;;5096090;28;20520;-74
2022/03/29 12:20:45;;;;;;;13.95;2.20;;;20.00;99.30;;;;;;5113434;28;20504;-74
2022/03/29 12:23:26;;;;;;;14.55;2.30;;;20.00;99.30;;;;;;5095763;28;20028;-74
2022/03/29 12:25:53;;;;;;;18.52;2.10;;;20.00;99.30;;;;;;5113887;28;20055;-74
2022/03/29 12:28:21;;;;;;;13.38;2.20;;;20.00;99.30;;;;;;5095241;28;20118;-74
2022/03/29 12:30:48;;;;;;;10.98;2.13;;;20.00;99.30;;;;;;5096241;28;20097;-73
2022/03/29 12:33:15;;;;;;;13.48;1.95;;;20.00;99.30;;;;;;5094978;28;20106;-74
2022/03/29 12:35:43;;;;;;;13.13;2.05;;;20.00;99.30;;;;;;5095377;28;20080;-74
2022/03/29 12:38:13;;;;;;;18.67;1.83;;;20.00;99.30;;;;;;5094983;28;20099;-74
2022/03/29 12:40:41;;;;;;;15.02;2.15;;;20.00;99.30;;;;;;5113312;28;20036;-74
2022/03/29 12:43:09;;;;;;;10.23;2.03;;;20.00;99.30;;;;;;5078659;28;20557;-75
2022/03/29 12:45:37;;;;;;;15.80;2.30;;;20.00;99.40;;;;;;5095883;28;20036;-75
2022/03/29 12:48:07;;;;;;;12.43;2.05;;;20.00;99.30;;;;;;5115680;27;20066;-75
2022/03/29 12:50:34;;;;;;;14.70;2.30;;;20.10;99.40;;;;;;5099070;27;20126;-74
2022/03/29 12:53:08;;;;;;;15.85;2.88;;;20.10;99.40;;;;;;5099089;27;20028;-74
2022/03/29 12:55:36;;;;;;;9.13;2.03;;;20.00;99.30;;;;;;5134129;27;20100;-74
2022/03/29 12:58:04;;;;;;;15.18;2.00;;;20.00;99.30;;;;;;5115276;27;20031;-74
2022/03/29 13:00:41;;;;;;;13.20;2.58;;;20.00;99.30;;;;;;5133522;27;20035;-74
2022/03/29 13:03:10;;;;;;;17.05;2.30;;;20.00;99.40;;;;;;5115565;27;20064;-74
2022/03/29 13:05:37;;;;;;;15.48;1.90;;;20.00;99.40;;;;;;5133933;27;20035;-73
2022/03/29 13:08:04;;;;;;;9.30;2.10;;;20.00;99.40;;;;;;5098206;27;20030;-73
2022/03/29 13:10:40;;;;;;;10.18;2.42;;;20.00;99.30;;;;;;5133609;27;20378;-73
2022/03/29 13:13:17;;;;;;;14.38;2.63;;;20.00;99.40;;;;;;5115772;27;20392;-73
2022/03/29 13:16:05;;;;;;;14.40;2.10;;;20.10;99.40;;;;;;5116472;27;20105;-73
2022/03/29 13:18:40;;;;;;;9.75;1.95;;;20.00;99.30;;;;;;5101549;27;20035;-73
2022/03/29 13:21:30;;;;;;;15.65;2.30;;;20.00;99.30;;;;;;5081534;27;20115;-73
2022/03/29 13:24:16;;;;;;;9.85;2.30;;;20.00;99.30;;;;;;5133612;27;20430;-73
2022/03/29 13:26:51;;;;;;;14.63;2.10;;;20.00;99.30;;;;;;5115133;27;20042;-73
2022/03/29 13:29:19;;;;;;;7.70;2.30;;;20.00;99.30;;;;;;5132401;27;20130;-72
2022/03/29 13:31:49;;;;;;;12.98;2.50;;;20.00;99.30;;;;;;5114702;27;20111;-72
2022/03/29 13:34:16;;;;;;;14.85;2.50;;;20.00;99.30;;;;;;5115375;27;20526;-72
2022/03/29 13:36:43;;;;;;;12.60;2.88;;;20.00;99.30;;;;;;5132895;27;20041;-72
2022/03/29 13:39:12;;;;;;;20.30;6.68;;;20.00;99.40;;;;;;5132728;27;20031;-72
2022/03/29 13:41:40;;;;;;;18.67;4.20;;;20.00;99.40;;;;;;5098143;27;20031;-72
2022/03/29 13:44:07;;;;;;;20.50;2.80;;;20.00;99.40;;;;;;5133016;27;20092;-72
2022/03/29 13:46:34;;;;;;;13.32;2.15;;;20.00;99.40;;;;;;5114617;27;20039;-72
2022/03/29 13:49:02;;;;;;;10.38;2.08;;;20.10;99.40;;;;;;5132856;27;20066;-72
2022/03/29 13:51:29;;;;;;;12.77;2.20;;;20.00;99.40;;;;;;5114269;27;20500;-72
2022/03/29 13:53:56;;;;;;;11.75;2.13;;;20.10;99.40;;;;;;5132851;27;20054;-72
2022/03/29 13:56:23;;;;;;;11.90;2.05;;;20.10;99.40;;;;;;5114678;27;20023;-73
2022/03/29 13:58:51;;;;;;;19.45;2.25;;;20.10;99.40;;;;;;5097433;27;20524;-72
2022/03/29 14:01:18;;;;;;;14.57;2.22;;;20.10;99.40;;;;;;5112995;27;20034;-72
2022/03/29 14:03:45;;;;;;;13.65;2.08;;;20.10;99.40;;;;;;5111653;28;20519;-72
2022/03/29 14:06:12;;;;;;;14.38;2.08;;;20.10;99.40;;;;;;5111968;28;20477;-73
2022/03/29 14:08:40;;;;;;;10.55;2.33;;;20.10;99.40;;;;;;5112073;28;20180;-73
2022/03/29 14:11:08;;;;;;;11.48;1.73;;;20.10;99.40;;;;;;5093361;28;20047;-72
2022/03/29 14:13:36;;;;;;;12.63;2.38;;;20.10;99.40;;;;;;5111732;28;20341;-72
2022/03/29 14:16:06;;;;;;;17.13;2.00;;;20.00;99.30;;;;;;5111854;28;20267;-72
2022/03/29 14:18:33;;;;;;;15.93;2.55;;;20.00;99.40;;;;;;5112346;28;20063;-72
2022/03/29 14:21:00;;;;;;;17.23;2.85;;;20.10;99.40;;;;;;5096803;27;20066;-72
2022/03/29 14:23:28;;;;;;;12.07;2.60;;;20.10;99.40;;;;;;5132386;27;20411;-72
2022/03/29 14:25:55;;;;;;;18.05;2.75;;;20.00;99.40;;;;;;5110075;28;20462;-72
2022/03/29 14:28:23;;;;;;;12.00;2.97;;;20.00;99.40;;;;;;5076717;28;20054;-72
2022/03/29 14:30:50;;;;;;;14.98;3.17;;;20.00;99.40;;;;;;5091280;27;20133;-72
2022/03/29 14:33:18;;;;;;;20.33;2.53;;;20.00;99.40;;;;;;5131779;27;20532;-72
2022/03/29 14:35:52;;;;;;;20.23;2.83;;;20.10;99.40;;;;;;5096705;27;20122;-72
2022/03/29 14:38:19;;;;;;;22.10;2.90;;;20.00;99.40;;;;;;5109460;28;20032;-72
2022/03/29 14:40:49;;;;;;;20.55;2.75;;;20.00;99.40;;;;;;5110115;28;20440;-72
2022/03/29 14:43:16;;;;;;;;;;;20.10;99.40;;;;;;5110561;28;20110;-72
2022/03/29 14:45:43;;;;;;;22.02;3.10;;;20.00;99.40;;;;;;5111915;27;19904;-72
2022/03/29 14:48:12;;;;;;;20.00;2.80;;;20.00;99.40;;;;;;5113536;27;20393;-72
2022/03/29 14:50:39;;;;;;;20.35;3.92;;;20.00;99.30;;;;;;5113485;27;20487;-72
2022/03/29 14:53:07;;;;;;;20.35;2.95;;;20.00;99.30;;;;;;5096544;27;20118;-72
2022/03/29 14:55:36;;;;;;;20.83;2.80;;;20.00;99.40;;;;;;5092725;28;20051;-72
2022/03/29 14:58:04;;;;;;;18.95;3.72;;;20.00;99.40;;;;;;5110870;28;20038;-72
2022/03/29 15:00:31;;;;;;;22.20;3.22;;;20.00;99.40;;;;;;5092981;28;20481;-71
2022/03/29 15:02:58;;;;;;;18.77;3.08;;;20.00;99.40;;;;;;5090294;27;20084;-72
2022/03/29 15:05:25;;;;;;;20.33;3.20;;;20.00;99.40;;;;;;5113434;28;20031;-72
2022/03/29 15:07:53;;;;;;;14.70;3.00;;;20.10;99.40;;;;;;5096712;28;20114;-72
2022/03/29 15:10:21;;;;;;;25.60;3.17;;;20.00;99.40;;;;;;5131600;28;20396;-72
2022/03/29 15:12:48;;;;;;;23.23;3.10;;;20.00;99.40;;;;;;5112928;28;20508;-71
2022/03/29 15:15:15;;;;;;;21.77;2.80;;;20.10;99.40;;;;;;5131721;28;20055;-72
2022/03/29 15:17:42;;;;;;;18.65;2.90;;;20.00;99.40;;;;;;5130898;28;20089;-71
2022/03/29 15:20:10;;;;;;;17.52;3.08;;;20.00;99.40;;;;;;5131447;28;20026;-72
2022/03/29 15:22:37;;;;;;;16.17;3.00;;;20.10;99.40;;;;;;5131610;28;20042;-72
2022/03/29 15:25:04;;;;;;;25.17;4.00;;;20.10;99.40;;;;;;5118685;28;20028;-72
2022/03/29 15:27:32;;;;;;;21.70;3.28;;;20.00;99.40;;;;;;5110853;28;20032;-72
2022/03/29 15:30:00;;;;;;;25.08;3.42;;;20.10;99.40;;;;;;5111046;28;20335;-72
2022/03/29 15:32:27;;;;;;;21.60;3.20;;;20.10;99.40;;;;;;5110553;28;20070;-72
2022/03/29 15:34:54;;;;;;;24.48;3.08;;;20.00;99.40;;;;;;5099501;28;20520;-72
2022/03/29 15:37:21;;;;;;;13.68;2.90;;;20.00;99.40;;;;;;5111137;28;20054;-72
2022/03/29 15:39:49;;;;;;;19.92;3.00;;;20.10;99.40;;;;;;5079766;28;20031;-72
2022/03/29 15:42:18;;;;;;;17.00;3.08;;;20.00;99.40;;;;;;5097016;28;20054;-72
2022/03/29 15:44:47;;;;;;;16.98;3.03;;;20.10;99.40;;;;;;5096612;28;20024;-72
2022/03/29 15:47:16;;;;;;;24.98;3.53;;;20.00;99.40;;;;;;5114349;28;20048;-72
2022/03/29 15:49:43;;;;;;;20.40;4.03;;;20.00;99.40;;;;;;5113044;28;20035;-71
2022/03/29 15:52:11;;;;;;;17.10;2.97;;;20.00;99.40;;;;;;5116323;27;20044;-72
2022/03/29 15:54:40;;;;;;;18.98;2.97;;;20.10;99.40;;;;;;5116988;27;20046;-72
2022/03/29 15:57:07;;;;;;;26.00;3.47;;;20.00;99.40;;;;;;5116585;27;20038;-72
2022/03/29 15:59:35;;;;;;;14.52;3.35;;;20.00;99.40;;;;;;5080477;27;20058;-71
2022/03/29 18:53:08;;;;;;;8.88;2.90;;;19.40;98.90;;;;;;5111953;27;20120;-71
2022/03/29 18:55:36;;;;;;;13.07;2.88;;;19.30;98.80;;;;;;5078234;27;20032;-71
2022/03/29 18:58:05;;;;;;;11.65;3.22;;;19.30;98.80;;;;;;5087640;28;20443;-71
2022/03/29 19:00:33;;;;;;;13.60;3.27;;;19.30;98.80;;;;;;5112150;27;20493;-71
2022/03/29 19:03:00;;;;;;;19.50;3.90;;;19.30;98.80;;;;;;5111300;27;20031;-72
2022/03/29 19:05:28;;;;;;;12.35;3.13;;;19.30;98.80;;;;;;5094604;28;20067;-71
2022/03/29 19:07:56;;;;;;;12.15;3.10;;;19.30;98.80;;;;;;5087795;28;20126;-71
2022/03/29 19:10:23;;;;;;;13.93;3.20;;;19.30;98.80;;;;;;5090932;28;20112;-71
2022/03/29 19:12:51;;;;;;;9.93;3.10;;;19.30;98.80;;;;;;5116956;27;20070;-71
2022/03/29 19:15:19;;;;;;;14.70;3.45;;;19.30;98.70;;;;;;5101431;27;20039;-72
2022/03/29 19:17:48;;;;;;;9.90;3.20;;;19.30;98.70;;;;;;5100469;27;20055;-72
2022/03/29 19:20:16;;;;;;;10.77;3.03;;;19.30;98.70;;;;;;5099678;28;20039;-71
2022/03/29 19:22:43;;;;;;;15.80;3.15;;;19.30;98.70;;;;;;5099860;28;20107;-71
2022/03/29 19:25:10;;;;;;;16.23;3.45;;;19.30;98.70;;;;;;5115969;28;20036;-71
2022/03/29 19:27:38;;;;;;;10.32;2.90;;;19.30;98.70;;;;;;5119173;27;20039;-71
2022/03/29 19:30:10;;;;;;;14.88;3.58;;;19.30;98.70;;;;;;5117685;27;20039;-72
2022/03/29 19:32:38;;;;;;;11.98;3.38;;;19.30;98.70;;;;;;5069318;27;20032;-71
2022/03/29 19:35:09;;;;;;;11.73;3.40;;;19.30;98.70;;;;;;5119100;27;20027;-71
2022/03/29 19:37:37;;;;;;;15.65;3.53;;;19.30;98.70;;;;;;5107321;27;20035;-71
2022/03/29 19:40:05;;;;;;;11.85;3.47;;;19.20;98.60;;;;;;5099460;27;20870;-71
2022/03/29 19:42:34;;;;;;;11.43;3.08;;;19.20;98.60;;;;;;5119655;27;20035;-71
2022/03/29 19:45:07;;;;;;;8.30;3.08;;;19.20;98.60;;;;;;5091563;27;20042;-71
2022/03/29 19:47:35;;;;;;;11.20;3.67;;;19.20;98.60;;;;;;5135765;27;20231;-71
2022/03/29 19:50:06;;;;;;;18.52;3.17;;;19.20;98.60;;;;;;5117127;27;20038;-70
2022/03/29 20:25:42;;;;;;;17.95;4.20;;;19.00;98.40;;;;;;5106484;28;20471;-70
2022/03/29 20:28:11;;;;;;;10.83;4.00;;;19.00;98.40;;;;;;5111875;28;20130;-71
2022/03/29 20:30:39;;;;;;;9.18;3.80;;;19.00;98.40;;;;;;5095237;28;20043;-70
2022/03/29 20:33:06;;;;;;;14.15;4.30;;;19.00;98.40;;;;;;5074152;28;20039;-70
2022/03/29 20:35:33;;;;;;;16.58;4.38;;;19.00;98.40;;;;;;5075500;28;20102;-70
2022/03/29 20:38:00;;;;;;;16.15;4.78;;;19.00;98.40;;;;;;5093819;28;20039;-71
2022/03/29 20:40:28;;;;;;;14.85;4.10;;;19.00;98.40;;;;;;5067445;28;20062;-71
2022/03/29 20:42:55;;;;;;;16.95;4.38;;;19.00;98.40;;;;;;5086652;28;20028;-71
2022/03/29 20:45:23;;;;;;;15.27;4.75;;;19.00;98.40;;;;;;5101309;28;20086;-71
2022/03/29 20:47:50;;;;;;;10.82;4.40;;;19.10;98.50;;;;;;5109568;28;20074;-71
2022/03/29 20:50:17;;;;;;;20.63;4.25;;;19.00;98.40;;;;;;5097411;28;20397;-71
2022/03/29 20:52:45;;;;;;;14.90;4.07;;;19.10;98.40;;;;;;5113326;28;20038;-71
2022/03/29 20:55:12;;;;;;;11.57;4.03;;;19.00;98.40;;;;;;5108805;28;20084;-71
2022/03/29 20:57:39;;;;;;;16.27;4.07;;;19.00;98.30;;;;;;5080539;28;20040;-71
2022/03/29 21:00:07;;;;;;;11.45;3.72;;;19.10;98.40;;;;;;5092479;28;20032;-72
2022/03/29 21:02:37;;;;;;;12.07;4.00;;;19.10;98.40;;;;;;5074935;28;20028;-70
2022/03/29 21:05:06;;;;;;;14.68;4.80;;;19.10;98.40;;;;;;5067611;28;20031;-70
2022/03/29 21:07:33;;;;;;;17.27;4.97;;;19.10;98.40;;;;;;5047866;28;20089;-70
2022/03/29 21:10:00;;;;;;;15.70;5.40;;;19.20;98.40;;;;;;5092623;28;20032;-71
2022/03/29 21:12:27;;;;;;;20.13;5.90;;;19.20;98.50;;;;;;5092571;28;20039;-70
2022/03/29 21:14:55;;;;;;;15.77;4.53;;;19.10;98.40;;;;;;5075303;28;20036;-71
2022/03/29 21:17:22;;;;;;;19.63;4.82;;;19.10;98.50;;;;;;5092647;28;20122;-71
2022/03/29 21:19:49;;;;;;;13.60;4.38;;;19.20;98.50;;;;;;5094370;28;20032;-71
2022/03/29 21:22:16;;;;;;;15.80;4.70;;;19.20;98.50;;;;;;5112431;28;20035;-71
2022/03/29 21:24:44;;;;;;;17.58;5.05;;;19.30;98.50;;;;;;5094814;28;20104;-71
